createdAt,value
2019-04-30T00:01:28.840Z,10.29
2019-04-30T00:04:17.104Z,10.27
2019-04-30T00:06:46.681Z,10.24
2019-04-30T00:09:19.255Z,10.22
2019-04-30T00:11:50.565Z,10.21
2019-04-30T00:14:19.698Z,10.19
2019-04-30T00:16:49.039Z,10.15
2019-04-30T00:19:19.883Z,10.12
2019-04-30T00:21:57.073Z,10.07
2019-04-30T00:24:20.427Z,10.07
2019-04-30T00:26:52.378Z,10.06
2019-04-30T00:29:26.975Z,10.04
2019-04-30T00:31:51.944Z,10.01
2019-04-30T00:34:21.295Z,10.01
2019-04-30T00:36:50.661Z,10.00
2019-04-30T00:39:22.421Z,9.98
2019-04-30T00:41:51.771Z,9.96
2019-04-30T00:44:26.836Z,9.95
2019-04-30T00:46:52.181Z,9.94
2019-04-30T00:49:23.068Z,9.93
2019-04-30T00:51:56.706Z,9.91
2019-04-30T00:54:29.368Z,9.88
2019-04-30T00:56:57.522Z,9.87
2019-04-30T00:59:25.801Z,9.86
2019-04-30T01:02:19.894Z,9.82
2019-04-30T01:04:50.805Z,9.82
2019-04-30T01:07:20.248Z,9.79
2019-04-30T01:09:50.044Z,9.77
2019-04-30T01:12:27.723Z,9.76
2019-04-30T01:14:50.696Z,9.74
2019-04-30T01:17:20.050Z,9.72
2019-04-30T01:19:51.126Z,9.69
2019-04-30T01:22:27.847Z,9.69
2019-04-30T01:24:51.726Z,9.68
2019-04-30T01:27:21.070Z,9.67
2019-04-30T01:29:50.537Z,9.66
2019-04-30T01:32:21.196Z,9.67
2019-04-30T01:34:53.866Z,9.65
2019-04-30T01:37:28.315Z,9.64
2019-04-30T01:39:52.704Z,9.61
2019-04-30T01:42:22.065Z,9.57
2019-04-30T01:44:53.907Z,9.55
2019-04-30T01:47:27.694Z,9.53
2019-04-30T01:49:55.785Z,9.52
2019-04-30T01:52:29.258Z,9.52
2019-04-30T01:54:58.658Z,9.51
2019-04-30T01:57:45.737Z,9.51
2019-04-30T02:00:24.894Z,9.50
2019-04-30T02:02:54.243Z,9.48
2019-04-30T02:05:23.586Z,9.47
2019-04-30T02:07:52.935Z,9.47
2019-04-30T02:10:22.351Z,9.46
2019-04-30T02:12:51.726Z,9.45
2019-04-30T02:15:21.063Z,9.42
2019-04-30T02:17:50.586Z,9.40
2019-04-30T02:20:20.014Z,9.37
2019-04-30T02:22:49.410Z,9.33
2019-04-30T02:25:19.525Z,9.33
2019-04-30T02:27:49.019Z,9.31
2019-04-30T02:30:20.861Z,9.30
2019-04-30T02:32:52.647Z,9.28
2019-04-30T02:35:40.739Z,9.27
2019-04-30T02:38:19.895Z,9.27
2019-04-30T02:40:51.384Z,9.24
2019-04-30T02:43:23.242Z,9.23
2019-04-30T02:45:54.984Z,9.21
2019-04-30T02:48:25.650Z,9.18
2019-04-30T02:51:00.235Z,9.16
2019-04-30T02:54:12.228Z,9.10
2019-04-30T02:56:43.673Z,9.08
2019-04-30T02:59:13.003Z,9.05
2019-04-30T03:01:42.357Z,9.03
2019-04-30T03:04:11.697Z,9.00
2019-04-30T03:06:41.026Z,8.97
2019-04-30T03:09:10.939Z,8.95
2019-04-30T03:11:41.013Z,8.91
2019-04-30T03:14:11.005Z,8.90
2019-04-30T03:17:00.222Z,8.87
2019-04-30T03:19:47.074Z,8.85
2019-04-30T03:22:20.307Z,8.81
2019-04-30T03:24:50.211Z,8.78
2019-04-30T03:27:20.653Z,8.76
2019-04-30T03:29:50.764Z,8.75
2019-04-30T03:32:22.392Z,8.75
2019-04-30T03:34:52.086Z,8.70
2019-04-30T03:37:21.553Z,8.64
2019-04-30T03:39:50.887Z,8.61
2019-04-30T03:42:20.247Z,8.59
2019-04-30T03:44:49.900Z,8.58
2019-04-30T03:47:20.253Z,8.56
2019-04-30T03:49:50.043Z,8.54
2019-04-30T03:52:19.853Z,8.53
2019-04-30T03:54:49.622Z,8.49
2019-04-30T03:57:20.351Z,8.47
2019-04-30T03:59:50.195Z,8.44
2019-04-30T04:02:44.460Z,8.42
2019-04-30T04:05:22.052Z,8.41
2019-04-30T04:07:59.947Z,8.40
2019-04-30T04:10:46.896Z,8.41
2019-04-30T04:13:16.259Z,8.38
2019-04-30T04:15:45.643Z,8.40
2019-04-30T04:18:14.967Z,8.38
2019-04-30T04:20:44.316Z,8.40
2019-04-30T04:23:13.673Z,8.40
2019-04-30T04:25:43.066Z,8.41
2019-04-30T04:28:12.447Z,8.41
2019-04-30T04:30:43.018Z,8.38
2019-04-30T04:33:12.458Z,8.37
2019-04-30T04:35:41.801Z,8.38
2019-04-30T04:38:12.750Z,8.38
2019-04-30T04:40:42.289Z,8.37
2019-04-30T04:43:11.582Z,8.40
2019-04-30T04:45:43.823Z,8.41
2019-04-30T04:48:11.994Z,8.44
2019-04-30T04:50:41.368Z,8.45
2019-04-30T04:53:11.662Z,8.47
2019-04-30T04:55:41.146Z,8.50
2019-04-30T04:58:12.769Z,8.51
2019-04-30T05:00:41.600Z,8.52
2019-04-30T05:03:25.361Z,8.56
2019-04-30T05:05:54.723Z,8.56
2019-04-30T05:08:24.071Z,8.59
2019-04-30T05:10:53.438Z,8.62
2019-04-30T05:13:22.756Z,8.63
2019-04-30T05:15:52.116Z,8.65
2019-04-30T05:18:22.791Z,8.66
2019-04-30T05:20:52.215Z,8.69
2019-04-30T05:23:21.991Z,8.71
2019-04-30T05:25:51.453Z,8.76
2019-04-30T05:28:20.811Z,8.79
2019-04-30T05:30:50.157Z,8.82
2019-04-30T05:33:19.530Z,8.85
2019-04-30T05:35:49.592Z,8.87
2019-04-30T05:38:19.090Z,8.89
2019-04-30T05:40:49.534Z,8.92
2019-04-30T05:43:19.309Z,8.95
2019-04-30T05:45:49.193Z,8.98
2019-04-30T05:48:18.741Z,9.00
2019-04-30T05:50:51.501Z,9.03
2019-04-30T05:53:19.200Z,9.05
2019-04-30T05:55:49.382Z,9.08
2019-04-30T05:58:19.800Z,9.12
2019-04-30T06:00:49.937Z,9.14
2019-04-30T06:03:27.536Z,9.17
2019-04-30T06:05:50.469Z,9.21
2019-04-30T06:08:21.819Z,9.24
2019-04-30T06:10:56.483Z,9.28
2019-04-30T06:13:31.940Z,9.34
2019-04-30T06:16:09.527Z,9.39
2019-04-30T06:18:38.993Z,9.46
2019-04-30T06:21:09.174Z,9.52
2019-04-30T06:23:39.304Z,9.57
2019-04-30T06:26:10.743Z,9.66
2019-04-30T06:28:41.608Z,9.70
2019-04-30T06:31:11.054Z,9.76
2019-04-30T06:33:40.518Z,9.80
2019-04-30T06:36:11.173Z,9.85
2019-04-30T06:38:40.589Z,9.89
2019-04-30T06:41:09.926Z,9.93
2019-04-30T06:43:39.619Z,9.97
2019-04-30T06:46:09.307Z,10.01
2019-04-30T06:48:41.856Z,10.05
2019-04-30T06:51:10.883Z,10.09
2019-04-30T06:53:40.310Z,10.12
2019-04-30T06:56:09.787Z,10.16
2019-04-30T06:58:41.414Z,10.19
2019-04-30T07:01:10.382Z,10.24
2019-04-30T07:03:41.047Z,10.29
2019-04-30T07:06:10.386Z,10.35
2019-04-30T07:09:01.571Z,10.39
2019-04-30T07:11:56.037Z,10.45
2019-04-30T07:14:25.421Z,10.53
2019-04-30T07:16:54.753Z,10.62
2019-04-30T07:19:32.870Z,10.71
2019-04-30T07:21:55.248Z,10.80
2019-04-30T07:24:24.608Z,10.89
2019-04-30T07:26:54.674Z,10.97
2019-04-30T07:29:25.122Z,11.03
2019-04-30T07:31:54.527Z,11.07
2019-04-30T07:34:23.841Z,11.12
2019-04-30T07:37:10.857Z,11.17
2019-04-30T07:39:31.217Z,11.21
2019-04-30T07:41:55.415Z,11.26
2019-04-30T07:44:33.886Z,11.30
2019-04-30T07:46:55.850Z,11.35
2019-04-30T07:49:25.234Z,11.41
2019-04-30T07:51:55.261Z,11.48
2019-04-30T07:54:25.046Z,11.56
2019-04-30T07:56:54.423Z,11.61
2019-04-30T07:59:23.797Z,11.69
2019-04-30T08:02:06.321Z,11.72
2019-04-30T08:04:41.969Z,11.77
2019-04-30T08:07:11.371Z,11.81
2019-04-30T08:09:42.337Z,11.91
2019-04-30T08:12:21.365Z,11.91
2019-04-30T08:14:42.946Z,11.96
2019-04-30T08:17:12.332Z,12.01
2019-04-30T08:19:41.708Z,12.06
2019-04-30T08:22:11.058Z,12.06
2019-04-30T08:24:40.458Z,12.11
2019-04-30T08:27:09.854Z,12.14
2019-04-30T08:29:39.548Z,12.15
2019-04-30T08:32:09.134Z,12.16
2019-04-30T08:34:39.403Z,12.16
2019-04-30T08:37:17.091Z,12.24
2019-04-30T08:39:39.859Z,12.24
2019-04-30T08:42:09.226Z,12.25
2019-04-30T08:44:39.603Z,12.31
2019-04-30T08:47:09.136Z,12.31
2019-04-30T08:49:40.441Z,12.35
2019-04-30T08:52:10.672Z,12.39
2019-04-30T08:54:40.362Z,12.39
2019-04-30T08:57:09.727Z,12.48
2019-04-30T08:59:39.556Z,12.52
2019-04-30T09:02:15.997Z,12.53
2019-04-30T09:04:39.948Z,12.64
2019-04-30T09:07:10.240Z,12.64
2019-04-30T09:09:40.671Z,12.69
2019-04-30T09:12:10.026Z,12.80
2019-04-30T09:14:40.621Z,12.80
2019-04-30T09:17:10.089Z,12.92
2019-04-30T09:19:39.468Z,12.98
2019-04-30T09:22:14.892Z,13.01
2019-04-30T09:24:39.928Z,13.01
2019-04-30T09:27:10.809Z,13.02
2019-04-30T09:29:40.252Z,13.13
2019-04-30T09:32:09.645Z,13.32
2019-04-30T09:34:40.370Z,13.32
2019-04-30T09:37:09.853Z,13.43
2019-04-30T09:39:39.400Z,13.47
2019-04-30T09:42:09.255Z,13.58
2019-04-30T09:44:39.116Z,13.71
2019-04-30T09:47:08.954Z,13.75
2019-04-30T09:49:38.819Z,13.75
2019-04-30T09:52:11.033Z,13.80
2019-04-30T09:54:40.818Z,13.84
2019-04-30T09:57:11.487Z,13.89
2019-04-30T09:59:40.901Z,13.95
2019-04-30T10:02:10.673Z,14.07
2019-04-30T10:04:40.671Z,14.15
2019-04-30T10:07:10.276Z,14.22
2019-04-30T10:09:39.646Z,14.28
2019-04-30T10:12:14.415Z,14.33
2019-04-30T10:14:43.879Z,14.39
2019-04-30T10:17:25.790Z,14.46
2019-04-30T10:19:55.130Z,14.51
2019-04-30T10:22:24.489Z,14.55
2019-04-30T10:24:53.881Z,14.58
2019-04-30T10:27:23.328Z,14.65
2019-04-30T10:29:53.518Z,14.71
2019-04-30T10:32:22.887Z,14.74
2019-04-30T10:34:52.225Z,14.84
2019-04-30T10:37:21.798Z,14.90
2019-04-30T10:39:51.160Z,14.95
2019-04-30T10:42:20.610Z,14.95
2019-04-30T10:44:50.093Z,15.03
2019-04-30T10:47:19.543Z,15.03
2019-04-30T10:49:48.918Z,15.11
2019-04-30T10:52:19.229Z,15.14
2019-04-30T10:54:49.589Z,15.20
2019-04-30T10:57:19.068Z,15.27
2019-04-30T10:59:48.759Z,15.38
2019-04-30T11:02:18.116Z,15.46
2019-04-30T11:04:47.520Z,15.54
2019-04-30T11:07:18.528Z,15.64
2019-04-30T11:09:49.320Z,15.73
2019-04-30T11:12:19.365Z,15.83
2019-04-30T11:14:48.813Z,15.89
2019-04-30T11:17:19.763Z,16.07
2019-04-30T11:19:49.656Z,16.07
2019-04-30T11:22:19.345Z,16.07
2019-04-30T11:24:58.952Z,16.07
2019-04-30T11:27:20.980Z,16.21
2019-04-30T11:29:50.996Z,16.21
2019-04-30T11:32:23.064Z,16.27
2019-04-30T11:34:52.510Z,16.32
2019-04-30T11:37:21.894Z,16.39
2019-04-30T11:39:51.313Z,16.47
2019-04-30T11:42:20.655Z,16.57
2019-04-30T11:44:50.112Z,16.69
2019-04-30T11:47:29.351Z,16.74
2019-04-30T11:49:58.703Z,16.83
2019-04-30T11:52:28.065Z,16.88
2019-04-30T11:54:59.488Z,16.97
2019-04-30T11:57:29.810Z,17.05
2019-04-30T11:59:59.322Z,17.16
2019-04-30T12:02:41.272Z,17.22
2019-04-30T12:05:11.777Z,17.33
2019-04-30T12:08:06.025Z,17.40
2019-04-30T12:11:03.342Z,17.43
2019-04-30T12:13:33.724Z,17.40
2019-04-30T12:16:03.103Z,17.37
2019-04-30T12:18:32.430Z,17.37
2019-04-30T12:21:01.793Z,17.36
2019-04-30T12:23:31.127Z,17.38
2019-04-30T12:26:02.869Z,17.42
2019-04-30T12:28:31.630Z,17.48
2019-04-30T12:31:00.991Z,17.60
2019-04-30T12:33:30.371Z,17.70
2019-04-30T12:35:59.760Z,17.79
2019-04-30T12:38:29.883Z,17.78
2019-04-30T12:40:59.339Z,17.76
2019-04-30T12:43:28.701Z,17.71
2019-04-30T12:46:04.853Z,17.68
2019-04-30T12:48:43.837Z,17.64
2019-04-30T12:51:45.327Z,17.62
2019-04-30T12:54:12.384Z,17.54
2019-04-30T12:57:00.669Z,17.48
2019-04-30T12:59:30.055Z,17.38
2019-04-30T13:01:59.455Z,17.25
2019-04-30T13:04:29.352Z,17.15
2019-04-30T13:07:01.637Z,17.03
2019-04-30T13:09:30.987Z,16.93
2019-04-30T13:12:01.527Z,16.84
2019-04-30T13:14:31.947Z,16.74
2019-04-30T13:17:01.506Z,16.64
2019-04-30T13:19:30.873Z,16.54
2019-04-30T13:22:00.211Z,16.48
2019-04-30T13:24:31.385Z,16.42
2019-04-30T13:27:00.676Z,16.36
2019-04-30T13:29:35.156Z,16.29
2019-04-30T13:32:04.722Z,16.24
2019-04-30T13:34:51.230Z,16.19
2019-04-30T13:37:20.600Z,16.17
2019-04-30T13:40:08.896Z,16.10
2019-04-30T13:42:41.666Z,16.03
2019-04-30T13:45:11.298Z,16.03
2019-04-30T13:47:40.658Z,16.10
2019-04-30T13:50:10.697Z,16.08
2019-04-30T13:52:40.059Z,16.06
2019-04-30T13:55:10.992Z,16.06
2019-04-30T13:57:40.436Z,16.06
2019-04-30T14:00:12.840Z,16.03
2019-04-30T14:02:47.157Z,16.03
2019-04-30T14:05:17.583Z,16.06
2019-04-30T14:08:04.749Z,16.01
2019-04-30T14:10:37.026Z,15.97
2019-04-30T14:13:08.243Z,15.94
2019-04-30T14:15:38.101Z,15.96
2019-04-30T14:18:09.364Z,15.95
2019-04-30T14:20:38.800Z,15.93
2019-04-30T14:23:08.525Z,15.93
2019-04-30T14:25:39.210Z,15.89
2019-04-30T14:28:09.438Z,15.87
2019-04-30T14:30:39.338Z,15.82
2019-04-30T14:33:09.424Z,15.75
2019-04-30T14:35:38.946Z,15.73
2019-04-30T14:38:09.020Z,15.68
2019-04-30T14:40:40.436Z,15.68
2019-04-30T14:43:31.859Z,15.69
2019-04-30T14:46:33.141Z,15.70
2019-04-30T14:49:22.169Z,15.72
2019-04-30T14:51:51.833Z,15.77
2019-04-30T14:54:26.884Z,15.75
2019-04-30T14:57:00.534Z,15.71
2019-04-30T14:59:48.735Z,15.71
2019-04-30T15:02:29.624Z,15.67
2019-04-30T15:04:59.122Z,15.61
2019-04-30T15:07:29.561Z,15.55
2019-04-30T15:09:59.010Z,15.48
2019-04-30T15:12:28.372Z,15.37
2019-04-30T15:14:59.225Z,15.37
2019-04-30T15:17:28.645Z,15.32
2019-04-30T15:19:58.767Z,15.23
2019-04-30T15:22:29.035Z,15.18
2019-04-30T15:24:59.165Z,15.12
2019-04-30T15:27:28.999Z,15.08
2019-04-30T15:29:58.470Z,15.06
2019-04-30T15:32:28.586Z,15.04
2019-04-30T15:34:58.930Z,15.03
2019-04-30T15:37:28.728Z,15.00
2019-04-30T15:39:59.136Z,14.97
2019-04-30T15:42:28.664Z,14.94
2019-04-30T15:44:59.435Z,14.88
2019-04-30T15:47:28.978Z,14.84
2019-04-30T15:49:59.596Z,14.80
2019-04-30T15:52:29.462Z,14.76
2019-04-30T15:54:59.269Z,14.74
2019-04-30T15:57:29.518Z,14.71
2019-04-30T15:59:58.956Z,14.67
2019-04-30T16:05:49.338Z,14.61
2019-04-30T16:08:36.004Z,14.57
2019-04-30T16:11:36.535Z,14.55
2019-04-30T16:14:13.778Z,14.54
2019-04-30T16:16:46.497Z,14.51
2019-04-30T16:19:15.963Z,14.49
2019-04-30T16:21:45.336Z,14.47
2019-04-30T16:24:15.038Z,14.46
2019-04-30T16:26:50.012Z,14.46
2019-04-30T16:29:15.734Z,14.45
2019-04-30T16:31:45.143Z,14.43
2019-04-30T16:34:14.591Z,14.43
2019-04-30T16:36:43.966Z,14.41
2019-04-30T16:39:13.428Z,14.39
2019-04-30T16:41:42.771Z,14.38
2019-04-30T16:44:12.175Z,14.38
2019-04-30T16:46:41.487Z,14.37
2019-04-30T16:49:13.405Z,14.37
2019-04-30T16:51:41.978Z,14.36
2019-04-30T16:54:11.358Z,14.36
2019-04-30T16:56:40.715Z,14.37
2019-04-30T16:59:11.800Z,14.37
2019-04-30T17:01:41.151Z,14.37
2019-04-30T17:04:29.084Z,14.37
2019-04-30T17:07:08.828Z,14.37
2019-04-30T17:09:43.467Z,14.36
2019-04-30T17:12:26.968Z,14.34
2019-04-30T17:15:15.273Z,14.33
2019-04-30T17:17:44.622Z,14.32
2019-04-30T17:20:15.278Z,14.30
2019-04-30T17:22:44.654Z,14.29
2019-04-30T17:25:14.090Z,14.27
2019-04-30T17:27:43.513Z,14.24
2019-04-30T17:30:13.109Z,14.22
2019-04-30T17:32:42.526Z,14.19
2019-04-30T17:35:12.474Z,14.15
2019-04-30T17:37:41.817Z,14.14
2019-04-30T17:40:11.496Z,14.14
2019-04-30T17:42:40.914Z,14.14
2019-04-30T17:45:10.728Z,14.13
2019-04-30T17:47:40.098Z,14.12
2019-04-30T17:50:10.614Z,14.11
2019-04-30T17:52:40.087Z,14.11
2019-04-30T17:55:10.205Z,14.10
2019-04-30T17:57:40.378Z,14.12
2019-04-30T18:00:18.903Z,14.12
2019-04-30T18:02:42.803Z,14.13
2019-04-30T18:05:13.579Z,14.12
2019-04-30T18:07:42.944Z,14.12
2019-04-30T18:10:13.107Z,14.12
2019-04-30T18:12:42.449Z,14.12
2019-04-30T18:15:16.770Z,14.11
2019-04-30T18:17:51.184Z,14.11
2019-04-30T18:20:51.669Z,14.10
2019-04-30T18:23:38.987Z,14.09
2019-04-30T18:26:11.530Z,14.07
2019-04-30T18:28:41.162Z,14.07
2019-04-30T18:31:10.743Z,14.05
2019-04-30T18:33:40.289Z,14.03
2019-04-30T18:36:09.792Z,14.00
2019-04-30T18:38:39.289Z,13.99
2019-04-30T18:41:09.501Z,13.98
2019-04-30T18:43:40.555Z,13.96
2019-04-30T18:46:10.838Z,13.93
2019-04-30T18:48:40.334Z,13.92
2019-04-30T18:51:30.028Z,13.89
2019-04-30T18:53:40.878Z,13.88
2019-04-30T18:56:14.411Z,13.86
2019-04-30T18:58:43.067Z,13.83
2019-04-30T19:01:12.514Z,13.82
2019-04-30T19:03:41.864Z,13.80
2019-04-30T19:06:23.031Z,13.78
2019-04-30T19:08:58.450Z,13.77
2019-04-30T19:11:43.504Z,13.75
2019-04-30T19:14:44.174Z,13.73
2019-04-30T19:17:32.464Z,13.71
2019-04-30T19:20:19.466Z,13.69
2019-04-30T19:22:48.832Z,13.67
2019-04-30T19:25:19.106Z,13.63
2019-04-30T19:27:48.523Z,13.63
2019-04-30T19:30:19.270Z,13.62
2019-04-30T19:32:49.216Z,13.60
2019-04-30T19:35:18.860Z,13.58
2019-04-30T19:37:48.770Z,13.55
2019-04-30T19:40:19.034Z,13.54
2019-04-30T19:42:50.834Z,13.53
2019-04-30T19:45:19.668Z,13.51
2019-04-30T19:47:49.101Z,13.50
2019-04-30T19:50:19.233Z,13.48
2019-04-30T19:52:48.811Z,13.47
2019-04-30T19:55:20.452Z,13.46
2019-04-30T19:57:51.038Z,13.45
2019-04-30T20:00:20.434Z,13.43
2019-04-30T20:02:49.794Z,13.41
2019-04-30T20:05:19.517Z,13.36
2019-04-30T20:07:49.416Z,13.34
2019-04-30T20:10:19.558Z,13.34
2019-04-30T20:12:49.788Z,13.36
2019-04-30T20:15:24.235Z,13.30
2019-04-30T20:17:50.432Z,13.30
2019-04-30T20:20:19.790Z,13.32
2019-04-30T20:22:51.899Z,13.31
2019-04-30T20:25:20.246Z,13.30
2019-04-30T20:27:49.663Z,13.29
2019-04-30T20:30:19.537Z,13.27
2019-04-30T20:32:51.298Z,13.26
2019-04-30T20:35:20.262Z,13.24
2019-04-30T20:38:09.392Z,13.19
2019-04-30T20:40:43.551Z,13.21
2019-04-30T20:43:11.431Z,13.19
2019-04-30T20:45:40.793Z,13.18
2019-04-30T20:48:10.151Z,13.17
2019-04-30T20:50:39.519Z,13.16
2019-04-30T20:53:08.984Z,13.16
2019-04-30T20:55:38.847Z,13.16
2019-04-30T20:58:09.600Z,13.16
2019-04-30T21:00:38.953Z,13.16
2019-04-30T21:03:09.719Z,13.15
2019-04-30T21:05:39.297Z,13.15
2019-04-30T21:08:08.629Z,13.14
2019-04-30T21:10:39.684Z,13.14
2019-04-30T21:13:11.120Z,13.11
2019-04-30T21:15:40.239Z,13.10
2019-04-30T21:18:09.596Z,13.09
2019-04-30T21:20:38.958Z,13.06
2019-04-30T21:23:09.451Z,13.04
2019-04-30T21:25:38.866Z,13.03
2019-04-30T21:28:09.744Z,13.02
2019-04-30T21:30:39.242Z,13.01
2019-04-30T21:33:30.345Z,12.97
2019-04-30T21:36:08.793Z,12.96
2019-04-30T21:38:38.959Z,12.94
2019-04-30T21:41:09.960Z,12.90
2019-04-30T21:43:39.481Z,12.91
2019-04-30T21:46:09.572Z,12.89
2019-04-30T21:48:39.075Z,12.87
2019-04-30T21:51:09.432Z,12.86
2019-04-30T21:53:39.633Z,12.84
2019-04-30T21:56:09.181Z,12.81
2019-04-30T21:58:39.192Z,12.77
2019-04-30T22:01:26.046Z,12.80
2019-04-30T22:03:55.538Z,12.80
2019-04-30T22:06:24.897Z,12.78
2019-04-30T22:08:54.258Z,12.77
2019-04-30T22:11:23.718Z,12.76
2019-04-30T22:13:54.651Z,12.74
2019-04-30T22:16:23.979Z,12.69
2019-04-30T22:18:53.334Z,12.68
2019-04-30T22:21:22.729Z,12.69
2019-04-30T22:23:52.041Z,12.68
2019-04-30T22:26:21.399Z,12.68
2019-04-30T22:28:50.744Z,12.67
2019-04-30T22:31:20.141Z,12.65
2019-04-30T22:33:49.504Z,12.63
2019-04-30T22:36:24.096Z,12.63
2019-04-30T22:39:29.666Z,12.63
2019-04-30T22:42:34.244Z,12.62
2019-04-30T22:45:06.423Z,12.59
2019-04-30T22:47:35.789Z,12.58
2019-04-30T22:50:06.576Z,12.54
2019-04-30T22:52:35.960Z,12.54
2019-04-30T22:55:06.253Z,12.55
2019-04-30T22:57:35.606Z,12.54
2019-04-30T23:00:09.573Z,12.53
2019-04-30T23:02:44.636Z,12.49
2019-04-30T23:05:15.573Z,12.47
2019-04-30T23:07:44.964Z,12.37
2019-04-30T23:10:15.742Z,12.38
2019-04-30T23:12:45.102Z,12.38
2019-04-30T23:15:16.065Z,12.29
2019-04-30T23:17:45.448Z,12.29
2019-04-30T23:20:15.057Z,12.28
2019-04-30T23:22:44.442Z,12.28
2019-04-30T23:25:13.774Z,12.26
2019-04-30T23:27:43.119Z,12.23
2019-04-30T23:30:12.990Z,12.16
2019-04-30T23:32:42.390Z,12.14
2019-04-30T23:35:14.972Z,12.06
2019-04-30T23:37:44.558Z,12.06
2019-04-30T23:40:23.954Z,11.98
2019-04-30T23:42:53.794Z,11.98
2019-04-30T23:45:23.524Z,12.01
2019-04-30T23:47:52.944Z,11.97
2019-04-30T23:50:22.312Z,11.97
2019-04-30T23:52:51.707Z,11.95
2019-04-30T23:55:21.053Z,11.92
2019-04-30T23:57:50.421Z,11.91
